sensor_id;sensor_type;location;lat;lon;timestamp;pressure;altitude;pressure_sealevel;temperature;humidity
26915;BME280;14480;52.608;13.416;2023-02-20T08:49:31;141749.41;;;-9.18;100.00
26915;BME280;14480;52.608;13.416;2023-02-20T08:54:35;141782.72;;;-9.04;100.00
26915;BME280;14480;52.608;13.416;2023-02-20T08:59:38;141797.53;;;-8.98;100.00
26915;BME280;14480;52.608;13.416;2023-02-20T09:04:43;141817.31;;;-8.90;100.00
26915;BME280;14480;52.608;13.416;2023-02-20T09:09:47;141851.84;;;-8.76;100.00
26915;BME280;14480;52.608;13.416;2023-02-20T09:14:57;141882.72;;;-8.63;100.00
26915;BME280;14480;52.608;13.416;2023-02-20T09:20:03;141934.59;;;-8.42;100.00
26915;BME280;14480;52.608;13.416;2023-02-20T09:25:10;141964.16;;;-8.30;100.00
26915;BME280;14480;52.608;13.416;2023-02-20T09:30:14;142011.06;;;-8.10;100.00
26915;BME280;14480;52.608;13.416;2023-02-20T09:35:23;142035.78;;;-8.00;100.00
26915;BME280;14480;52.608;13.416;2023-02-20T09:40:38;142035.78;;;-8.00;100.00
26915;BME280;14480;52.608;13.416;2023-02-20T09:46:18;142086.44;;;-7.79;100.00
26915;BME280;14480;52.608;13.416;2023-02-20T09:51:24;142107.47;;;-7.71;100.00
26915;BME280;14480;52.608;13.416;2023-02-20T09:56:30;142147.00;;;-7.54;100.00
26915;BME280;14480;52.608;13.416;2023-02-20T10:01:36;142163.09;;;-7.48;100.00
26915;BME280;14480;52.608;13.416;2023-02-20T10:06:43;142179.13;;;-7.41;100.00
26915;BME280;14480;52.608;13.416;2023-02-20T10:11:57;142222.41;;;-7.23;100.00
26915;BME280;14480;52.608;13.416;2023-02-20T10:17:05;142228.59;;;-7.21;100.00
26915;BME280;14480;52.608;13.416;2023-02-20T10:22:18;142180.41;;;-7.41;100.00
26915;BME280;14480;52.608;13.416;2023-02-20T10:27:28;142215.00;;;-7.26;100.00
26915;BME280;14480;52.608;13.416;2023-02-20T10:32:35;142238.50;;;-7.17;100.00
26915;BME280;14480;52.608;13.416;2023-02-20T10:37:49;142283.00;;;-6.98;100.00
26915;BME280;14480;52.608;13.416;2023-02-20T10:48:40;142440.09;;;-6.34;100.00
26915;BME280;14480;52.608;13.416;2023-02-20T10:53:53;142461.09;;;-6.25;100.00
26915;BME280;14480;52.608;13.416;2023-02-20T10:59:01;142508.13;;;-6.06;100.00
26915;BME280;14480;52.608;13.416;2023-02-20T11:04:08;142565.03;;;-5.82;100.00
26915;BME280;14480;52.608;13.416;2023-02-20T11:09:14;142573.66;;;-5.79;100.00
26915;BME280;14480;52.608;13.416;2023-02-20T11:14:21;142563.78;;;-5.83;100.00
26915;BME280;14480;52.608;13.416;2023-02-20T11:19:42;142523.00;;;-6.00;100.00
26915;BME280;14480;52.608;13.416;2023-02-20T11:24:47;142513.06;;;-6.04;100.00
26915;BME280;14480;52.608;13.416;2023-02-20T11:29:53;142447.50;;;-6.31;100.00
26915;BME280;14480;52.608;13.416;2023-02-20T11:40:26;142474.72;;;-6.20;100.00
26915;BME280;14480;52.608;13.416;2023-02-20T11:45:30;142485.84;;;-6.15;100.00
26915;BME280;14480;52.608;13.416;2023-02-20T11:50:38;142464.84;;;-6.24;100.00
26915;BME280;14480;52.608;13.416;2023-02-20T11:55:44;142449.97;;;-6.30;100.00
26915;BME280;14480;52.608;13.416;2023-02-20T12:01:01;142409.16;;;-6.47;100.00
26915;BME280;14480;52.608;13.416;2023-02-20T12:11:43;142416.59;;;-6.43;100.00
26915;BME280;14480;52.608;13.416;2023-02-20T12:16:54;142405.47;;;-6.48;100.00
26915;BME280;14480;52.608;13.416;2023-02-20T12:22:06;142402.94;;;-6.49;100.00
26915;BME280;14480;52.608;13.416;2023-02-20T12:27:25;142435.16;;;-6.36;100.00
26915;BME280;14480;52.608;13.416;2023-02-20T12:32:38;142417.81;;;-6.43;100.00
26915;BME280;14480;52.608;13.416;2023-02-20T12:37:50;142443.81;;;-6.32;100.00
26915;BME280;14480;52.608;13.416;2023-02-20T12:43:04;142466.09;;;-6.23;100.00
26915;BME280;14480;52.608;13.416;2023-02-20T12:48:17;142471.03;;;-6.21;100.00
26915;BME280;14480;52.608;13.416;2023-02-20T12:53:31;142431.41;;;-6.37;100.00
26915;BME280;14480;52.608;13.416;2023-02-20T12:58:46;142390.59;;;-6.54;100.00
26915;BME280;14480;52.608;13.416;2023-02-20T13:03:56;142406.69;;;-6.48;100.00
26915;BME280;14480;52.608;13.416;2023-02-20T13:09:08;142395.53;;;-6.52;100.00
26915;BME280;14480;52.608;13.416;2023-02-20T13:14:35;142386.88;;;-6.56;100.00
26915;BME280;14480;52.608;13.416;2023-02-20T13:30:39;142248.38;;;-7.13;100.00
26915;BME280;14480;52.608;13.416;2023-02-20T13:35:46;142249.63;;;-7.12;100.00
26915;BME280;14480;52.608;13.416;2023-02-20T13:41:03;142172.97;;;-7.44;100.00
26915;BME280;14480;52.608;13.416;2023-02-20T13:46:10;142176.66;;;-7.42;100.00
26915;BME280;14480;52.608;13.416;2023-02-20T13:51:32;142160.63;;;-7.49;100.00
26915;BME280;14480;52.608;13.416;2023-02-20T13:56:42;142151.97;;;-7.52;100.00
26915;BME280;14480;52.608;13.416;2023-02-20T14:01:56;142151.97;;;-7.52;100.00
26915;BME280;14480;52.608;13.416;2023-02-20T14:07:00;142144.53;;;-7.55;100.00
26915;BME280;14480;52.608;13.416;2023-02-20T14:12:06;142151.97;;;-7.52;100.00
26915;BME280;14480;52.608;13.416;2023-02-20T14:17:15;142133.44;;;-7.60;100.00
26915;BME280;14480;52.608;13.416;2023-02-20T14:22:22;142139.59;;;-7.57;100.00
26915;BME280;14480;52.608;13.416;2023-02-20T14:27:27;142166.78;;;-7.46;100.00
26915;BME280;14480;52.608;13.416;2023-02-20T14:32:34;142163.09;;;-7.48;100.00
26915;BME280;14480;52.608;13.416;2023-02-20T14:37:39;142186.59;;;-7.38;100.00
26915;BME280;14480;52.608;13.416;2023-02-20T14:42:47;142196.44;;;-7.34;100.00
26915;BME280;14480;52.608;13.416;2023-02-20T14:47:53;142263.19;;;-7.07;100.00
26915;BME280;14480;52.608;13.416;2023-02-20T14:53:00;142248.38;;;-7.13;100.00
26915;BME280;14480;52.608;13.416;2023-02-20T14:58:05;142268.19;;;-7.04;100.00
26915;BME280;14480;52.608;13.416;2023-02-20T15:03:17;142265.72;;;-7.06;100.00
26915;BME280;14480;52.608;13.416;2023-02-20T15:08:32;142264.47;;;-7.06;100.00
26915;BME280;14480;52.608;13.416;2023-02-20T15:13:42;142276.81;;;-7.01;100.00
26915;BME280;14480;52.608;13.416;2023-02-20T15:18:48;142273.13;;;-7.02;100.00
26915;BME280;14480;52.608;13.416;2023-02-20T15:23:52;142279.28;;;-7.00;100.00
26915;BME280;14480;52.608;13.416;2023-02-20T15:29:18;142291.63;;;-6.95;100.00
26915;BME280;14480;52.608;13.416;2023-02-20T15:34:24;142270.66;;;-7.03;100.00
26915;BME280;14480;52.608;13.416;2023-02-20T15:39:30;142281.75;;;-6.99;100.00
26915;BME280;14480;52.608;13.416;2023-02-20T15:44:33;142301.56;;;-6.91;100.00
26915;BME280;14480;52.608;13.416;2023-02-20T15:49:38;142268.19;;;-7.04;100.00
26915;BME280;14480;52.608;13.416;2023-02-20T15:54:42;142290.41;;;-6.95;100.00
26915;BME280;14480;52.608;13.416;2023-02-20T15:59:47;142270.66;;;-7.03;100.00
26915;BME280;14480;52.608;13.416;2023-02-20T16:04:52;142275.59;;;-7.01;100.00
26915;BME280;14480;52.608;13.416;2023-02-20T16:09:57;142248.38;;;-7.13;100.00
26915;BME280;14480;52.608;13.416;2023-02-20T16:15:06;142217.47;;;-7.25;100.00
26915;BME280;14480;52.608;13.416;2023-02-20T16:20:17;142219.94;;;-7.24;100.00
26915;BME280;14480;52.608;13.416;2023-02-20T16:25:22;142219.94;;;-7.24;100.00
26915;BME280;14480;52.608;13.416;2023-02-20T16:30:26;142203.84;;;-7.31;100.00
26915;BME280;14480;52.608;13.416;2023-02-20T16:35:36;142202.63;;;-7.31;100.00
26915;BME280;14480;52.608;13.416;2023-02-20T16:40:40;142200.16;;;-7.32;100.00
26915;BME280;14480;52.608;13.416;2023-02-20T16:45:44;142197.69;;;-7.33;100.00
26915;BME280;14480;52.608;13.416;2023-02-20T16:50:49;142169.25;;;-7.45;100.00
26915;BME280;14480;52.608;13.416;2023-02-20T16:55:56;142139.59;;;-7.57;100.00
26915;BME280;14480;52.608;13.416;2023-02-20T17:01:00;142151.97;;;-7.52;100.00
26915;BME280;14480;52.608;13.416;2023-02-20T17:06:05;142159.38;;;-7.49;100.00
26915;BME280;14480;52.608;13.416;2023-02-20T17:11:09;142137.13;;;-7.58;100.00
26915;BME280;14480;52.608;13.416;2023-02-20T17:16:20;142134.66;;;-7.59;100.00
26915;BME280;14480;52.608;13.416;2023-02-20T17:21:57;142116.09;;;-7.67;100.00
26915;BME280;14480;52.608;13.416;2023-02-20T17:27:04;142117.34;;;-7.67;100.00
26915;BME280;14480;52.608;13.416;2023-02-20T17:32:07;142123.50;;;-7.64;100.00
26915;BME280;14480;52.608;13.416;2023-02-20T17:37:12;142111.19;;;-7.69;100.00
26915;BME280;14480;52.608;13.416;2023-02-20T17:42:16;142189.03;;;-7.37;100.00
26915;BME280;14480;52.608;13.416;2023-02-20T17:47:19;142239.75;;;-7.16;100.00
26915;BME280;14480;52.608;13.416;2023-02-20T17:52:24;142355.97;;;-6.68;100.00
26915;BME280;14480;52.608;13.416;2023-02-20T17:57:28;142548.97;;;-5.89;100.00
26915;BME280;14480;52.608;13.416;2023-02-20T18:02:33;142447.50;;;-6.31;100.00
26915;BME280;14480;52.608;13.416;2023-02-20T18:07:39;142362.16;;;-6.66;100.00
26915;BME280;14480;52.608;13.416;2023-02-20T18:12:46;142332.47;;;-6.78;100.00
26915;BME280;14480;52.608;13.416;2023-02-20T18:18:04;142237.28;;;-7.17;100.00
26915;BME280;14480;52.608;13.416;2023-02-20T18:23:09;142135.91;;;-7.59;100.00
26915;BME280;14480;52.608;13.416;2023-02-20T18:28:12;142123.50;;;-7.64;100.00
26915;BME280;14480;52.608;13.416;2023-02-20T18:33:15;142075.34;;;-7.84;100.00
26915;BME280;14480;52.608;13.416;2023-02-20T18:38:20;142056.81;;;-7.91;100.00
26915;BME280;14480;52.608;13.416;2023-02-20T18:43:25;142062.97;;;-7.89;100.00
26915;BME280;14480;52.608;13.416;2023-02-20T18:48:29;142030.84;;;-8.02;100.00
26915;BME280;14480;52.608;13.416;2023-02-20T18:53:37;142035.78;;;-8.00;100.00
26915;BME280;14480;52.608;13.416;2023-02-20T20:12:52;142065.44;;;-7.88;100.00
26915;BME280;14480;52.608;13.416;2023-02-20T20:17:57;142082.75;;;-7.81;100.00
26915;BME280;14480;52.608;13.416;2023-02-20T20:23:01;142100.06;;;-7.74;100.00
26915;BME280;14480;52.608;13.416;2023-02-20T20:28:07;142107.47;;;-7.71;100.00
26915;BME280;14480;52.608;13.416;2023-02-20T20:33:11;142097.59;;;-7.75;100.00
26915;BME280;14480;52.608;13.416;2023-02-20T20:38:14;142126.03;;;-7.63;100.00
26915;BME280;14480;52.608;13.416;2023-02-20T20:43:21;142128.50;;;-7.62;100.00
26915;BME280;14480;52.608;13.416;2023-02-20T20:48:25;142133.44;;;-7.60;100.00
26915;BME280;14480;52.608;13.416;2023-02-20T20:53:29;142142.06;;;-7.56;100.00
26915;BME280;14480;52.608;13.416;2023-02-20T20:58:36;142160.63;;;-7.49;100.00
26915;BME280;14480;52.608;13.416;2023-02-20T21:03:40;142176.66;;;-7.42;100.00
26915;BME280;14480;52.608;13.416;2023-02-20T21:08:45;142201.38;;;-7.32;100.00
26915;BME280;14480;52.608;13.416;2023-02-20T21:13:51;142179.13;;;-7.41;100.00
26915;BME280;14480;52.608;13.416;2023-02-20T21:18:59;142187.81;;;-7.38;100.00
26915;BME280;14480;52.608;13.416;2023-02-20T21:24:03;142190.28;;;-7.37;100.00
26915;BME280;14480;52.608;13.416;2023-02-20T21:29:08;142177.91;;;-7.42;100.00
26915;BME280;14480;52.608;13.416;2023-02-20T21:34:12;142187.81;;;-7.38;100.00
26915;BME280;14480;52.608;13.416;2023-02-20T21:39:17;142216.25;;;-7.26;100.00
26915;BME280;14480;52.608;13.416;2023-02-20T21:44:22;142206.31;;;-7.30;100.00
26915;BME280;14480;52.608;13.416;2023-02-20T21:49:33;142190.28;;;-7.37;100.00
26915;BME280;14480;52.608;13.416;2023-02-20T21:54:38;142237.28;;;-7.17;100.00
26915;BME280;14480;52.608;13.416;2023-02-20T21:59:46;142216.25;;;-7.26;100.00
26915;BME280;14480;52.608;13.416;2023-02-20T22:04:49;142236.00;;;-7.18;100.00
26915;BME280;14480;52.608;13.416;2023-02-20T22:09:53;142216.25;;;-7.26;100.00
26915;BME280;14480;52.608;13.416;2023-02-20T22:15:16;142217.47;;;-7.25;100.00
26915;BME280;14480;52.608;13.416;2023-02-20T22:20:37;142219.94;;;-7.24;100.00
26915;BME280;14480;52.608;13.416;2023-02-20T22:25:58;142186.59;;;-7.38;100.00
26915;BME280;14480;52.608;13.416;2023-02-20T22:31:20;142172.97;;;-7.44;100.00
26915;BME280;14480;52.608;13.416;2023-02-20T22:36:41;142172.97;;;-7.44;100.00
26915;BME280;14480;52.608;13.416;2023-02-20T22:42:02;142149.47;;;-7.53;100.00
